LSZR/ACH METAR and TAF weather

Enter ICAO airport designator
Station Type Date Time Source
LSZR METAR 2022/12/05 14:20 UTC NOAA

LSZR 051420Z 19006KT 160V220 9999 FEW080 SCT100 06/02 Q1019 RMK J


Station Type Date Time Source
LSZR Decoded METAR 2022/12/05 14:20 UTC NOAA

Saint Gallen-Altenrhein, Switzerland (LSZR) 47-29-06N 009-33-43E
Dec 05, 2022 - 09:20 AM EST / 2022.12.05 1420 UTC
Wind: from the S (190 degrees) at 7 MPH (6 KT) (direction variable):0
Visibility: greater than 7 mile(s):0
Sky conditions: partly cloudy
Temperature: 42 F (6 C)
Dew Point: 35 F (2 C)
Relative Humidity: 75%
Pressure (altimeter): 30.09 in. Hg (1019 hPa)
ob: LSZR 051420Z 19006KT 160V220 9999 FEW080 SCT100 06/02 Q1019 RMK J
cycle: 14

Station Type Date Time Source
LSZR TAF 2014/12/22 20:03 UTC NOAA

TAF
AMD LSZR 222054Z 2220/2224 CNL

Example: see airport list